createdAt,value
2018-05-19T00:01:48.644Z,15.30
2018-05-19T00:04:16.777Z,14.20
2018-05-19T00:06:45.732Z,14.87
2018-05-19T00:09:13.854Z,13.97
2018-05-19T00:11:42.023Z,14.43
2018-05-19T00:14:11.729Z,14.63
2018-05-19T00:16:41.128Z,14.30
2018-05-19T00:19:10.025Z,14.33
2018-05-19T00:21:38.943Z,15.60
2018-05-19T00:24:07.083Z,14.93
2018-05-19T00:26:36.585Z,14.73
2018-05-19T00:29:05.479Z,15.23
2018-05-19T00:31:34.391Z,15.20
2018-05-19T00:34:02.528Z,16.07
2018-05-19T00:36:31.407Z,16.33
2018-05-19T00:39:00.093Z,14.33
2018-05-19T00:41:28.248Z,15.90
2018-05-19T00:43:56.382Z,14.90
2018-05-19T00:46:24.632Z,16.10
2018-05-19T00:48:52.707Z,14.57
2018-05-19T00:51:20.879Z,15.07
2018-05-19T00:53:49.025Z,14.73
2018-05-19T00:56:17.812Z,15.80
2018-05-19T00:58:46.540Z,15.73
2018-05-19T01:01:15.467Z,15.40
2018-05-19T01:03:43.609Z,14.90
2018-05-19T01:06:12.677Z,16.90
2018-05-19T01:08:40.819Z,16.43
2018-05-19T01:11:08.997Z,16.30
2018-05-19T01:13:37.122Z,15.80
2018-05-19T01:16:07.272Z,16.83
2018-05-19T01:18:35.438Z,15.63
2018-05-19T01:21:04.102Z,15.87
2018-05-19T01:23:33.029Z,17.07
2018-05-19T01:26:01.189Z,15.43
2018-05-19T01:28:29.350Z,17.03
2018-05-19T01:30:58.253Z,16.33
2018-05-19T01:33:26.449Z,16.70
2018-05-19T01:35:54.571Z,16.70
2018-05-19T01:38:22.726Z,15.03
2018-05-19T01:40:51.633Z,16.60
2018-05-19T01:43:20.877Z,17.17
2018-05-19T01:45:49.018Z,17.10
2018-05-19T01:48:17.973Z,15.77
2018-05-19T01:50:47.829Z,16.40
2018-05-19T01:53:16.756Z,16.20
2018-05-19T01:55:45.352Z,16.57
2018-05-19T01:58:13.514Z,17.10
2018-05-19T02:00:41.656Z,16.90
2018-05-19T02:03:10.583Z,15.33
2018-05-19T02:05:38.732Z,15.03
2018-05-19T02:08:06.871Z,17.30
2018-05-19T02:10:35.081Z,15.90
2018-05-19T02:13:03.173Z,16.50
2018-05-19T02:15:31.294Z,16.90
2018-05-19T02:17:59.461Z,16.47
2018-05-19T02:20:29.387Z,16.67
2018-05-19T02:22:58.418Z,14.97
2018-05-19T02:25:26.552Z,15.80
2018-05-19T02:27:54.706Z,15.63
2018-05-19T02:30:22.841Z,14.07
2018-05-19T02:32:51.005Z,15.40
2018-05-19T02:35:19.144Z,14.80
2018-05-19T02:37:47.303Z,13.60
2018-05-19T02:40:15.469Z,14.40
2018-05-19T02:42:43.615Z,14.40
2018-05-19T02:45:11.742Z,14.00
2018-05-19T02:47:39.901Z,14.00
2018-05-19T02:50:09.250Z,15.40
2018-05-19T02:52:37.398Z,14.70
2018-05-19T02:55:05.546Z,13.97
2018-05-19T02:57:33.702Z,14.00
2018-05-19T03:00:03.054Z,14.57
2018-05-19T03:02:31.794Z,15.67
2018-05-19T03:05:00.694Z,15.00
2018-05-19T03:07:29.342Z,14.10
2018-05-19T03:09:57.476Z,14.67
2018-05-19T03:12:25.633Z,15.90
2018-05-19T03:14:53.770Z,15.90
2018-05-19T03:17:21.935Z,15.93
2018-05-19T03:19:50.076Z,14.80
2018-05-19T03:22:20.233Z,15.90
2018-05-19T03:24:48.371Z,16.70
2018-05-19T03:27:17.339Z,14.87
2018-05-19T03:29:45.485Z,15.37
2018-05-19T03:32:13.645Z,15.00
2018-05-19T03:34:41.784Z,17.07
2018-05-19T03:37:09.955Z,18.43
2018-05-19T03:39:38.645Z,16.93
2018-05-19T03:42:08.037Z,18.33
2018-05-19T03:44:36.194Z,16.40
2018-05-19T03:47:04.351Z,15.50
2018-05-19T03:49:32.554Z,16.03
2018-05-19T03:52:00.730Z,17.80
2018-05-19T03:54:28.879Z,15.50
2018-05-19T03:57:08.797Z,16.70
2018-05-19T03:59:49.626Z,16.60
2018-05-19T04:02:36.609Z,16.80
2018-05-19T04:05:04.763Z,16.90
2018-05-19T04:07:36.030Z,15.50
2018-05-19T04:10:04.169Z,14.80
2018-05-19T04:12:33.035Z,15.27
2018-05-19T04:15:01.168Z,15.23
2018-05-19T04:17:29.329Z,17.30
2018-05-19T04:19:57.463Z,16.73
2018-05-19T04:22:25.594Z,16.20
2018-05-19T04:24:53.898Z,15.63
2018-05-19T04:27:22.035Z,17.50
2018-05-19T04:29:50.199Z,15.53
2018-05-19T04:32:18.336Z,16.40
2018-05-19T04:34:46.498Z,16.60
2018-05-19T04:37:14.634Z,16.90
2018-05-19T04:39:42.793Z,16.73
2018-05-19T04:42:10.930Z,16.67
2018-05-19T04:44:39.088Z,14.40
2018-05-19T04:47:10.044Z,14.40
2018-05-19T04:49:38.215Z,15.23
2018-05-19T04:52:06.350Z,15.20
2018-05-19T04:54:34.517Z,15.10
2018-05-19T04:57:02.649Z,15.10
2018-05-19T04:59:31.565Z,15.10
2018-05-19T05:01:59.690Z,14.70
2018-05-19T05:04:27.843Z,14.00
2018-05-19T05:06:56.751Z,14.70
2018-05-19T05:09:25.689Z,14.90
2018-05-19T05:11:54.578Z,12.87
2018-05-19T05:14:23.520Z,13.47
2018-05-19T05:16:51.685Z,13.80
2018-05-19T05:19:19.851Z,13.30
2018-05-19T05:21:49.232Z,13.63
2018-05-19T05:24:17.392Z,14.67
2018-05-19T05:26:46.319Z,16.03
2018-05-19T05:29:15.722Z,14.87
2018-05-19T05:31:43.839Z,15.77
2018-05-19T05:34:11.986Z,14.70
2018-05-19T05:36:40.128Z,15.60
2018-05-19T05:39:08.280Z,13.83
2018-05-19T05:41:37.172Z,13.23
2018-05-19T05:44:06.088Z,16.83
2018-05-19T05:46:36.082Z,14.20
2018-05-19T05:49:05.003Z,16.00
2018-05-19T05:51:33.135Z,15.90
2018-05-19T05:54:01.305Z,14.30
2018-05-19T05:56:29.454Z,14.47
2018-05-19T05:58:57.983Z,15.30
2018-05-19T06:01:26.878Z,14.53
2018-05-19T06:03:55.801Z,14.80
2018-05-19T06:06:24.010Z,15.20
2018-05-19T06:08:52.127Z,15.17
2018-05-19T06:11:20.405Z,15.17
2018-05-19T06:13:50.535Z,16.20
2018-05-19T06:16:18.673Z,17.23
2018-05-19T06:18:46.878Z,15.03
2018-05-19T06:21:14.970Z,16.80
2018-05-19T06:23:43.130Z,15.70
2018-05-19T06:26:11.303Z,14.97
2018-05-19T06:28:40.687Z,15.32
2018-05-19T06:31:09.585Z,15.87
2018-05-19T06:33:37.754Z,16.20
2018-05-19T06:36:06.673Z,14.60
2018-05-19T06:38:34.830Z,16.90
2018-05-19T06:41:02.963Z,16.70
2018-05-19T06:43:31.902Z,16.60
2018-05-19T06:46:00.970Z,17.47
2018-05-19T06:48:30.771Z,14.60
2018-05-19T06:50:59.478Z,16.37
2018-05-19T06:53:28.397Z,16.50
2018-05-19T06:55:56.539Z,16.60
2018-05-19T06:58:25.454Z,15.90
2018-05-19T07:00:53.602Z,15.67
2018-05-19T07:03:22.496Z,16.07
2018-05-19T07:05:51.660Z,16.80
2018-05-19T07:08:19.879Z,16.13
2018-05-19T07:10:48.516Z,15.63
2018-05-19T07:13:19.434Z,17.20
2018-05-19T07:15:47.583Z,17.60
2018-05-19T07:18:15.715Z,17.93
2018-05-19T07:20:43.884Z,16.50
2018-05-19T07:23:12.104Z,18.20
2018-05-19T07:25:41.525Z,17.17
2018-05-19T07:28:12.269Z,17.00
2018-05-19T07:30:42.158Z,16.33
2018-05-19T07:33:10.292Z,16.73
2018-05-19T07:35:38.509Z,18.03
2018-05-19T07:38:06.608Z,18.20
2018-05-19T07:40:34.773Z,17.23
2018-05-19T07:43:02.913Z,20.63
2018-05-19T07:45:31.843Z,18.43
2018-05-19T07:47:59.978Z,18.50
2018-05-19T07:50:28.160Z,19.67
2018-05-19T07:52:59.409Z,18.93
2018-05-19T07:55:27.577Z,16.83
2018-05-19T07:57:57.325Z,16.40
2018-05-19T08:00:25.467Z,17.87
2018-05-19T08:02:55.674Z,18.77
2018-05-19T08:05:24.615Z,17.00
2018-05-19T08:07:52.893Z,17.37
2018-05-19T08:10:21.514Z,17.13
2018-05-19T08:12:49.858Z,19.37
2018-05-19T08:15:18.007Z,17.97
2018-05-19T08:17:47.081Z,19.40
2018-05-19T08:20:16.455Z,20.17
2018-05-19T08:22:44.605Z,19.20
2018-05-19T08:25:12.961Z,18.23
2018-05-19T08:27:42.956Z,20.83
2018-05-19T08:30:11.600Z,21.87
2018-05-19T08:32:40.515Z,20.23
2018-05-19T08:35:09.528Z,19.17
2018-05-19T08:37:37.671Z,21.63
2018-05-19T08:40:05.832Z,19.40
2018-05-19T08:42:34.904Z,20.03
2018-05-19T08:45:03.077Z,20.17
2018-05-19T08:47:31.319Z,21.00
2018-05-19T08:50:00.328Z,19.83
2018-05-19T08:52:29.649Z,19.40
2018-05-19T08:54:57.823Z,19.37
2018-05-19T08:57:25.957Z,20.67
2018-05-19T08:59:56.826Z,20.17
2018-05-19T09:02:24.956Z,19.20
2018-05-19T09:04:53.109Z,21.10
2018-05-19T09:07:21.252Z,20.13
2018-05-19T09:09:49.428Z,20.20
2018-05-19T09:12:17.577Z,18.70
2018-05-19T09:14:50.291Z,19.80
2018-05-19T09:17:18.461Z,18.37
2018-05-19T09:19:48.893Z,20.47
2018-05-19T09:22:17.027Z,19.10
2018-05-19T09:24:45.945Z,18.50
2018-05-19T09:27:14.081Z,19.63
2018-05-19T09:29:43.086Z,20.90
2018-05-19T09:32:11.214Z,18.80
2018-05-19T09:34:39.368Z,18.20
2018-05-19T09:37:07.487Z,20.10
2018-05-19T09:39:36.998Z,18.47
2018-05-19T09:42:06.900Z,17.97
2018-05-19T09:44:36.317Z,17.23
2018-05-19T09:47:10.754Z,17.50
2018-05-19T09:49:40.164Z,17.70
2018-05-19T09:52:09.600Z,17.97
2018-05-19T09:54:38.998Z,20.13
2018-05-19T09:57:08.385Z,20.10
2018-05-19T09:59:37.799Z,20.43
2018-05-19T10:02:07.183Z,21.00
2018-05-19T10:04:36.598Z,20.40
2018-05-19T10:07:06.011Z,19.90
2018-05-19T10:09:35.425Z,21.10
2018-05-19T10:12:06.110Z,22.40
2018-05-19T10:14:36.314Z,21.97
2018-05-19T10:17:06.336Z,22.13
2018-05-19T10:19:35.750Z,20.23
2018-05-19T10:22:05.139Z,21.73
2018-05-19T10:24:34.555Z,20.70
2018-05-19T10:27:03.944Z,20.20
2018-05-19T10:29:33.362Z,19.73
2018-05-19T10:32:02.784Z,21.47
2018-05-19T10:34:32.228Z,20.10
2018-05-19T10:37:01.659Z,20.87
2018-05-19T10:39:31.840Z,18.67
2018-05-19T10:42:01.259Z,17.70
2018-05-19T10:44:30.839Z,17.47
2018-05-19T10:47:00.272Z,16.67
2018-05-19T10:49:31.402Z,16.23
2018-05-19T10:52:00.811Z,18.50
2018-05-19T10:54:30.219Z,16.03
2018-05-19T10:56:59.662Z,17.40
2018-05-19T10:59:29.058Z,16.57
2018-05-19T11:01:58.548Z,15.43
2018-05-19T11:04:27.934Z,18.10
2018-05-19T11:06:57.337Z,18.60
2018-05-19T11:09:27.435Z,17.67
2018-05-19T11:12:03.768Z,17.87
2018-05-19T11:14:33.165Z,18.33
2018-05-19T11:17:02.581Z,18.33
2018-05-19T11:19:31.975Z,17.70
2018-05-19T11:22:01.397Z,17.80
2018-05-19T11:24:30.783Z,18.97
2018-05-19T11:27:00.197Z,17.23
2018-05-19T11:29:29.591Z,17.70
2018-05-19T11:31:59.001Z,16.10
2018-05-19T11:34:28.418Z,18.73
2018-05-19T11:36:57.834Z,17.93
2018-05-19T11:39:27.225Z,18.60
2018-05-19T11:41:57.474Z,18.07
2018-05-19T11:44:26.866Z,16.77
2018-05-19T11:46:56.340Z,16.80
2018-05-19T11:49:25.776Z,15.77
2018-05-19T11:51:55.181Z,16.90
2018-05-19T11:54:24.575Z,16.60
2018-05-19T11:56:54.711Z,17.20
2018-05-19T11:59:24.067Z,16.60
2018-05-19T12:01:53.476Z,16.73
2018-05-19T12:04:22.872Z,16.80
2018-05-19T12:06:55.333Z,18.67
2018-05-19T12:09:27.927Z,18.50
2018-05-19T12:11:57.431Z,18.07
2018-05-19T12:14:26.768Z,18.33
2018-05-19T12:16:56.171Z,18.70
2018-05-19T12:19:25.575Z,17.30
2018-05-19T12:21:54.987Z,19.13
2018-05-19T12:24:24.395Z,18.67
2018-05-19T12:26:54.133Z,17.93
2018-05-19T12:29:23.522Z,19.50
2018-05-19T12:31:52.952Z,19.30
2018-05-19T12:34:22.341Z,19.97
2018-05-19T12:36:51.758Z,19.00
2018-05-19T12:39:21.151Z,19.50
2018-05-19T12:41:50.575Z,20.03
2018-05-19T12:44:19.970Z,20.60
2018-05-19T12:46:49.386Z,19.73
2018-05-19T12:49:18.765Z,20.07
2018-05-19T12:51:48.267Z,18.30
2018-05-19T12:54:17.595Z,19.33
2018-05-19T12:56:47.016Z,17.90
2018-05-19T12:59:16.502Z,17.27
2018-05-19T13:01:45.934Z,18.50
2018-05-19T13:04:16.191Z,18.17
2018-05-19T13:06:46.692Z,17.17
2018-05-19T13:09:19.480Z,17.07
2018-05-19T13:11:48.884Z,17.70
2018-05-19T13:14:18.279Z,19.17
2018-05-19T13:16:48.371Z,16.97
2018-05-19T13:19:18.279Z,18.60
2018-05-19T13:21:47.699Z,17.27
2018-05-19T13:24:17.091Z,20.00
2018-05-19T13:26:50.037Z,17.90
2018-05-19T13:29:19.491Z,15.77
2018-05-19T13:31:49.030Z,17.20
2018-05-19T13:34:18.443Z,18.60
2018-05-19T13:36:47.914Z,18.80
2018-05-19T13:39:17.303Z,17.80
2018-05-19T13:41:46.713Z,18.00
2018-05-19T13:44:16.104Z,17.60
2018-05-19T13:46:45.549Z,16.67
2018-05-19T13:49:14.952Z,16.20
2018-05-19T13:51:44.358Z,16.47
2018-05-19T13:54:13.750Z,17.20
2018-05-19T13:56:43.171Z,15.93
2018-05-19T13:59:12.555Z,17.13
2018-05-19T14:01:41.966Z,16.10
2018-05-19T14:04:11.363Z,17.50
2018-05-19T14:06:40.767Z,15.43
2018-05-19T14:09:10.153Z,17.20
2018-05-19T14:11:39.558Z,16.17
2018-05-19T14:14:08.960Z,15.57
2018-05-19T14:16:38.362Z,15.83
2018-05-19T14:19:08.870Z,16.33
2018-05-19T14:21:38.296Z,14.60
2018-05-19T14:24:07.691Z,16.23
2018-05-19T14:26:37.115Z,16.33
2018-05-19T14:29:06.548Z,15.83
2018-05-19T14:31:35.986Z,16.50
2018-05-19T14:34:05.393Z,17.57
2018-05-19T14:36:34.797Z,18.57
2018-05-19T14:39:04.199Z,18.50
2018-05-19T14:41:33.595Z,19.03
2018-05-19T14:44:03.004Z,20.00
2018-05-19T14:46:34.970Z,19.40
2018-05-19T14:49:04.379Z,17.00
2018-05-19T14:51:33.796Z,18.80
2018-05-19T14:54:03.191Z,18.37
2018-05-19T14:56:32.599Z,17.70
2018-05-19T14:59:02.004Z,16.63
2018-05-19T15:01:33.068Z,17.50
2018-05-19T15:04:02.457Z,17.70
2018-05-19T15:06:32.388Z,18.50
2018-05-19T15:09:02.465Z,17.50
2018-05-19T15:11:31.868Z,16.43
2018-05-19T15:14:01.425Z,17.53
2018-05-19T15:16:31.695Z,17.70
2018-05-19T15:19:01.856Z,17.40
2018-05-19T15:21:31.273Z,19.50
2018-05-19T15:24:00.658Z,16.70
2018-05-19T15:26:31.232Z,18.73
2018-05-19T15:29:00.655Z,18.23
2018-05-19T15:31:30.068Z,19.07
2018-05-19T15:34:00.252Z,18.37
2018-05-19T15:36:29.665Z,18.13
2018-05-19T15:38:59.062Z,18.53
2018-05-19T15:41:28.484Z,17.20
2018-05-19T15:43:57.878Z,16.50
2018-05-19T15:46:27.302Z,16.47
2018-05-19T15:48:57.918Z,18.60
2018-05-19T15:51:27.424Z,14.60
2018-05-19T15:53:56.738Z,17.93
2018-05-19T15:56:26.151Z,16.27
2018-05-19T15:58:55.543Z,16.30
2018-05-19T16:01:29.135Z,15.40
2018-05-19T16:03:58.516Z,15.10
2018-05-19T16:06:27.924Z,14.93
2018-05-19T16:08:57.311Z,14.97
2018-05-19T16:11:26.760Z,15.47
2018-05-19T16:13:56.162Z,15.20
2018-05-19T16:16:31.313Z,16.10
2018-05-19T16:19:00.764Z,16.90
2018-05-19T16:21:30.211Z,15.60
2018-05-19T16:23:59.611Z,15.87
2018-05-19T16:26:29.016Z,15.93
2018-05-19T16:29:02.280Z,16.27
2018-05-19T16:31:32.548Z,14.47
2018-05-19T16:34:01.983Z,16.47
2018-05-19T16:36:31.388Z,16.17
2018-05-19T16:39:00.779Z,14.80
2018-05-19T16:41:30.815Z,15.87
2018-05-19T16:44:00.240Z,15.20
2018-05-19T16:46:29.654Z,17.00
2018-05-19T16:48:59.046Z,14.83
2018-05-19T16:51:28.532Z,15.30
2018-05-19T16:53:57.920Z,16.77
2018-05-19T16:56:27.381Z,17.47
2018-05-19T16:58:56.785Z,16.50
2018-05-19T17:01:26.187Z,19.90
2018-05-19T17:03:56.064Z,18.70
2018-05-19T17:06:25.437Z,18.20
2018-05-19T17:08:54.911Z,17.60
2018-05-19T17:11:24.299Z,17.33
2018-05-19T17:13:53.721Z,18.93
2018-05-19T17:16:25.938Z,17.30
2018-05-19T17:18:55.361Z,17.30
2018-05-19T17:21:24.744Z,17.90
2018-05-19T17:23:55.124Z,16.90
2018-05-19T17:26:24.508Z,19.00
2018-05-19T17:28:53.913Z,19.20
2018-05-19T17:31:23.330Z,18.57
2018-05-19T17:33:53.646Z,20.53
2018-05-19T17:36:23.026Z,19.10
2018-05-19T17:38:52.452Z,18.57
2018-05-19T17:41:21.867Z,20.77
2018-05-19T17:43:51.270Z,19.33
2018-05-19T17:46:20.657Z,17.50
2018-05-19T17:48:50.944Z,17.77
2018-05-19T17:51:20.321Z,19.57
2018-05-19T17:53:49.740Z,18.50
2018-05-19T17:56:20.365Z,19.10
2018-05-19T17:58:49.844Z,17.77
2018-05-19T18:01:19.344Z,18.40
2018-05-19T18:03:49.715Z,18.23
2018-05-19T18:06:21.835Z,18.30
2018-05-19T18:08:51.258Z,19.17
2018-05-19T18:11:20.651Z,17.43
2018-05-19T18:13:50.110Z,17.70
2018-05-19T18:16:19.553Z,18.10
2018-05-19T18:18:48.974Z,18.33
2018-05-19T18:21:19.588Z,17.70
2018-05-19T18:23:54.796Z,17.40
2018-05-19T18:26:24.196Z,17.77
2018-05-19T18:28:53.590Z,18.27
2018-05-19T18:31:24.262Z,18.50
2018-05-19T18:33:53.651Z,18.10
2018-05-19T18:36:23.029Z,18.57
2018-05-19T18:38:52.441Z,18.57
2018-05-19T18:41:21.827Z,19.40
2018-05-19T18:43:51.244Z,19.90
2018-05-19T18:46:20.649Z,18.10
2018-05-19T18:48:50.067Z,19.03
2018-05-19T18:51:19.476Z,18.10
2018-05-19T18:53:48.893Z,18.23
2018-05-19T18:56:18.974Z,17.90
2018-05-19T18:58:48.428Z,17.07
2018-05-19T19:01:17.831Z,17.53
2018-05-19T19:03:47.247Z,17.17
2018-05-19T19:06:16.640Z,16.77
2018-05-19T19:08:47.041Z,18.07
2018-05-19T19:11:16.490Z,17.60
2018-05-19T19:13:45.904Z,17.33
2018-05-19T19:16:15.373Z,19.20
2018-05-19T19:18:44.809Z,17.77
2018-05-19T19:21:15.809Z,16.97
2018-05-19T19:23:45.377Z,16.50
2018-05-19T19:26:15.045Z,16.33
2018-05-19T19:28:44.544Z,18.00
2018-05-19T19:31:13.980Z,16.77
2018-05-19T19:33:43.421Z,16.97
2018-05-19T19:36:12.902Z,17.03
2018-05-19T19:38:42.343Z,18.80
2018-05-19T19:41:11.768Z,16.90
2018-05-19T19:43:41.184Z,16.40
2018-05-19T19:46:10.636Z,17.23
2018-05-19T19:48:40.059Z,17.00
2018-05-19T19:51:13.252Z,17.57
2018-05-19T19:53:43.577Z,17.50
2018-05-19T19:56:17.414Z,17.80
2018-05-19T19:58:46.840Z,18.13
2018-05-19T20:01:16.241Z,17.37
2018-05-19T20:03:45.642Z,17.60
2018-05-19T20:06:15.663Z,17.70
2018-05-19T20:08:45.076Z,17.90
2018-05-19T20:11:14.488Z,17.37
2018-05-19T20:13:44.816Z,17.97
2018-05-19T20:16:17.108Z,18.00
2018-05-19T20:18:46.516Z,16.93
2018-05-19T20:21:15.903Z,15.77
2018-05-19T20:23:45.307Z,18.57
2018-05-19T20:26:21.473Z,16.40
2018-05-19T20:28:50.888Z,16.50
2018-05-19T20:31:20.423Z,16.33
2018-05-19T20:33:49.851Z,17.00
2018-05-19T20:36:19.247Z,16.33
2018-05-19T20:38:50.497Z,16.13
2018-05-19T20:41:19.951Z,16.97
2018-05-19T20:43:49.519Z,15.80
2018-05-19T20:46:19.492Z,16.93
2018-05-19T20:48:48.910Z,17.50
2018-05-19T20:51:18.430Z,17.63
2018-05-19T20:53:48.666Z,17.60
2018-05-19T20:56:16.800Z,16.33
2018-05-19T20:58:45.055Z,17.20
2018-05-19T21:01:15.550Z,17.40
2018-05-19T21:03:49.920Z,16.70
2018-05-19T21:06:18.693Z,17.40
2018-05-19T21:08:48.418Z,17.87
2018-05-19T21:11:16.562Z,17.63
2018-05-19T21:13:44.721Z,18.70
2018-05-19T21:16:18.466Z,18.53
2018-05-19T21:18:48.645Z,16.80
2018-05-19T21:21:17.077Z,18.60
2018-05-19T21:23:46.410Z,17.80
2018-05-19T21:26:14.570Z,17.00
2018-05-19T21:28:42.757Z,17.50
2018-05-19T21:31:10.904Z,16.80
2018-05-19T21:33:41.612Z,17.80
2018-05-19T21:36:10.518Z,16.27
2018-05-19T21:38:38.672Z,16.70
2018-05-19T21:41:06.795Z,18.23
2018-05-19T21:43:35.023Z,17.70
2018-05-19T21:46:03.934Z,16.60
2018-05-19T21:48:33.013Z,17.40
2018-05-19T21:51:01.163Z,19.30
2018-05-19T21:53:29.360Z,17.23
2018-05-19T21:55:58.257Z,17.77
2018-05-19T21:58:27.181Z,16.47
2018-05-19T22:00:55.314Z,16.30
2018-05-19T22:03:24.260Z,16.70
2018-05-19T22:05:52.496Z,16.73
2018-05-19T22:08:20.685Z,17.43
2018-05-19T22:10:48.806Z,18.47
2018-05-19T22:13:17.064Z,18.10
2018-05-19T22:15:45.243Z,18.40
2018-05-19T22:18:13.460Z,18.30
2018-05-19T22:20:43.098Z,17.30
2018-05-19T22:23:11.269Z,20.63
2018-05-19T22:25:39.856Z,18.70
2018-05-19T22:28:08.494Z,20.00
2018-05-19T22:30:36.628Z,18.33
2018-05-19T22:33:04.756Z,17.40
2018-05-19T22:35:33.621Z,16.97
2018-05-19T22:38:02.212Z,17.97
2018-05-19T22:40:32.180Z,18.50
2018-05-19T22:43:00.330Z,16.30
2018-05-19T22:45:29.305Z,19.53
2018-05-19T22:47:57.461Z,18.00
2018-05-19T22:50:25.773Z,17.17
2018-05-19T22:52:55.088Z,17.87
2018-05-19T22:55:23.256Z,18.47
2018-05-19T22:57:55.845Z,18.47
2018-05-19T23:00:26.716Z,21.00
2018-05-19T23:02:55.243Z,18.63
2018-05-19T23:05:24.153Z,19.03
2018-05-19T23:07:52.278Z,18.03
2018-05-19T23:10:20.480Z,18.67
2018-05-19T23:12:49.377Z,18.70
2018-05-19T23:15:18.366Z,17.30
2018-05-19T23:17:49.298Z,18.13
2018-05-19T23:20:18.563Z,19.43
2018-05-19T23:22:46.769Z,18.43
2018-05-19T23:25:14.936Z,18.00
2018-05-19T23:27:43.111Z,17.73
2018-05-19T23:30:11.269Z,18.53
2018-05-19T23:32:43.037Z,17.87
2018-05-19T23:35:11.193Z,17.83
2018-05-19T23:37:39.325Z,17.83
2018-05-19T23:40:07.481Z,18.30
2018-05-19T23:42:36.642Z,18.60
2018-05-19T23:45:05.538Z,18.40
2018-05-19T23:47:33.687Z,17.10
2018-05-19T23:50:01.845Z,16.67
2018-05-19T23:52:31.493Z,18.70
2018-05-19T23:54:59.673Z,19.50
2018-05-19T23:57:28.290Z,18.80
2018-05-19T23:59:57.781Z,17.50
